TimeAKST,TemperatureF,Dew PointF,Humidity,Sea Level PressureIn,VisibilityMPH,Wind Direction,Wind SpeedMPH,Gust SpeedMPH,PrecipitationIn,Events,Conditions,WindDirDegrees,DateUTC
12:42 AM,-7.6,-11.2,84,30.74,10.0,ENE,3.5,-,N/A,,Scattered Clouds,70,2014-02-04 09:42:00
12:53 AM,-8.0,-13.0,79,30.95,10.0,Calm,Calm,-,N/A,,Scattered Clouds,0,2014-02-04 09:53:00
1:39 AM,-11.2,-16.6,77,30.75,3.0,ENE,3.5,-,N/A,Fog,Mostly Cloudy,70,2014-02-04 10:39:00
1:53 AM,-9.9,-15.0,78,30.96,0.8,Calm,Calm,-,N/A,Fog,Overcast,0,2014-02-04 10:53:00
2:13 AM,-14.8,-16.6,92,30.75,1.5,East,3.5,-,N/A,Fog,Mist,90,2014-02-04 11:13:00
2:53 AM,-9.0,-14.1,79,30.96,7.0,Calm,Calm,-,N/A,Fog,Patches of Fog,0,2014-02-04 11:53:00
3:53 AM,-7.1,-11.0,83,30.97,5.0,East,3.5,-,N/A,Fog,Overcast,100,2014-02-04 12:53:00
4:30 AM,-9.4,-13.0,84,30.76,0.5,Calm,Calm,-,N/A,Fog,Light Freezing Fog,0,2014-02-04 13:30:00
4:50 AM,-11.2,-16.6,77,30.76,10.0,ENE,3.5,-,N/A,,Partly Cloudy,70,2014-02-04 13:50:00
4:53 AM,-11.0,-17.0,75,30.98,10.0,East,3.5,-,N/A,,Partly Cloudy,80,2014-02-04 13:53:00
5:53 AM,-14.1,-18.9,79,31.00,5.0,ENE,4.6,-,N/A,Fog,Mostly Cloudy,70,2014-02-04 14:53:00
6:53 AM,-11.0,-15.0,83,31.02,0.8,Calm,Calm,-,N/A,Fog,Overcast,0,2014-02-04 15:53:00
7:33 AM,-14.8,-18.4,84,30.78,10.0,Calm,Calm,-,N/A,,Mostly Cloudy,0,2014-02-04 16:33:00
7:53 AM,-15.0,-20.9,75,31.04,10.0,Calm,Calm,-,N/A,,Partly Cloudy,0,2014-02-04 16:53:00
8:53 AM,-18.9,-24.0,78,31.06,10.0,Calm,Calm,-,N/A,,Partly Cloudy,0,2014-02-04 17:53:00
9:35 AM,-16.6,-22.0,76,30.79,10.0,Calm,Calm,-,N/A,,Scattered Clouds,0,2014-02-04 18:35:00
9:53 AM,-18.0,-23.1,78,31.07,10.0,Calm,Calm,-,N/A,,Scattered Clouds,0,2014-02-04 18:53:00
10:53 AM,-11.0,-13.0,91,31.07,10.0,Calm,Calm,-,N/A,,Scattered Clouds,0,2014-02-04 19:53:00
11:53 AM,-6.0,-9.9,83,31.04,10.0,Calm,Calm,-,N/A,,Scattered Clouds,0,2014-02-04 20:53:00
12:53 PM,-2.9,-8.0,79,31.03,10.0,Calm,Calm,-,N/A,,Scattered Clouds,0,2014-02-04 21:53:00
1:53 PM,-0.9,-6.0,79,31.02,10.0,Calm,Calm,-,N/A,,Partly Cloudy,0,2014-02-04 22:53:00
2:53 PM,-2.0,-7.1,79,31.02,10.0,Calm,Calm,-,N/A,,Partly Cloudy,0,2014-02-04 23:53:00
3:53 PM,-4.0,-7.1,87,31.02,10.0,Calm,Calm,-,N/A,,Partly Cloudy,0,2014-02-05 00:53:00
4:53 PM,-9.0,-14.1,79,31.02,10.0,Calm,Calm,-,N/A,,Partly Cloudy,0,2014-02-05 01:53:00
5:53 PM,-14.1,-18.9,79,31.04,10.0,Calm,Calm,-,N/A,,Clear,0,2014-02-05 02:53:00
6:53 PM,-17.0,-22.0,78,31.05,10.0,Calm,Calm,-,N/A,,Clear,0,2014-02-05 03:53:00
7:53 PM,-18.9,-24.0,78,31.06,10.0,Calm,Calm,-,N/A,,Clear,0,2014-02-05 04:53:00
8:53 PM,-20.9,-26.0,77,31.07,10.0,Calm,Calm,-,N/A,,Clear,0,2014-02-05 05:53:00
9:53 PM,-20.9,-27.0,73,31.07,10.0,Calm,Calm,-,N/A,,Clear,0,2014-02-05 06:53:00
10:53 PM,-22.0,-27.9,74,31.05,10.0,Calm,Calm,-,N/A,,Clear,0,2014-02-05 07:53:00
11:53 PM,-23.1,-29.0,74,31.04,10.0,Calm,Calm,-,N/A,,Clear,0,2014-02-05 08:53:00